createdAt,value
2023-06-11T00:00:43.113Z,54.90
2023-06-11T00:03:10.441Z,55.00
2023-06-11T00:05:37.672Z,55.40
2023-06-11T00:08:05.684Z,54.90
2023-06-11T00:10:32.800Z,55.90
2023-06-11T00:13:00.025Z,56.80
2023-06-11T00:15:27.213Z,55.80
2023-06-11T00:17:54.790Z,56.40
2023-06-11T00:20:22.105Z,55.60
2023-06-11T00:22:49.695Z,56.10
2023-06-11T00:25:16.992Z,55.80
2023-06-11T00:27:44.146Z,56.50
2023-06-11T00:30:12.775Z,56.40
2023-06-11T00:32:39.970Z,57.30
2023-06-11T00:35:10.287Z,57.10
2023-06-11T00:37:38.232Z,56.70
2023-06-11T00:40:09.221Z,57.20
2023-06-11T00:42:37.603Z,57.20
2023-06-11T00:45:07.271Z,57.10
2023-06-11T00:47:37.816Z,57.30
2023-06-11T00:50:06.891Z,56.80
2023-06-11T00:52:33.985Z,57.50
2023-06-11T00:55:01.274Z,57.40
2023-06-11T00:57:28.401Z,57.40
2023-06-11T00:59:57.070Z,57.90
2023-06-11T01:02:34.018Z,58.10
2023-06-11T01:05:04.839Z,58.30
2023-06-11T01:07:37.555Z,58.20
2023-06-11T01:10:06.520Z,58.00
2023-06-11T01:12:36.624Z,58.70
2023-06-11T01:15:04.212Z,58.60
2023-06-11T01:17:41.965Z,58.30
2023-06-11T01:20:35.973Z,59.00
2023-06-11T01:23:12.620Z,58.70
2023-06-11T01:26:27.165Z,58.60
2023-06-11T01:28:57.527Z,59.20
2023-06-11T01:31:27.271Z,59.00
2023-06-11T01:33:54.746Z,59.90
2023-06-11T01:36:25.645Z,59.10
2023-06-11T01:38:55.884Z,59.60
2023-06-11T01:41:37.429Z,60.00
2023-06-11T01:44:05.501Z,59.90
2023-06-11T01:46:33.379Z,59.80
2023-06-11T01:49:00.696Z,59.90
2023-06-11T01:51:27.848Z,59.70
2023-06-11T01:53:56.208Z,60.20
2023-06-11T01:56:23.440Z,60.30
2023-06-11T01:58:50.641Z,60.70
2023-06-11T02:01:17.856Z,60.50
2023-06-11T02:03:45.338Z,60.60
2023-06-11T02:06:12.755Z,60.50
2023-06-11T02:08:39.930Z,60.40
2023-06-11T02:11:07.083Z,60.30
2023-06-11T02:13:34.444Z,60.60
2023-06-11T02:16:01.574Z,60.00
2023-06-11T02:18:29.110Z,60.50
2023-06-11T02:20:56.320Z,60.30
2023-06-11T02:23:23.528Z,60.30
2023-06-11T02:25:50.864Z,60.40
2023-06-11T02:28:18.339Z,60.20
2023-06-11T02:30:45.547Z,61.00
2023-06-11T02:33:12.860Z,60.80
2023-06-11T02:35:40.085Z,61.00
2023-06-11T02:38:07.268Z,61.10
2023-06-11T02:40:34.747Z,61.40
2023-06-11T02:43:01.877Z,62.20
2023-06-11T02:45:29.117Z,61.60
2023-06-11T02:47:56.672Z,61.70
2023-06-11T02:50:23.874Z,62.10
2023-06-11T02:52:51.084Z,61.20
2023-06-11T02:55:18.594Z,62.40
2023-06-11T02:57:45.744Z,62.30
2023-06-11T03:00:13.396Z,62.60
2023-06-11T03:02:41.049Z,62.80
2023-06-11T03:05:09.223Z,62.30
2023-06-11T03:07:37.075Z,62.30
2023-06-11T03:10:05.660Z,62.50
2023-06-11T03:12:32.776Z,62.40
2023-06-11T03:15:00.089Z,63.40
2023-06-11T03:17:27.267Z,63.40
2023-06-11T03:19:54.375Z,63.70
2023-06-11T03:22:21.799Z,63.80
2023-06-11T03:24:48.951Z,64.40
2023-06-11T03:27:30.663Z,63.60
2023-06-11T03:29:57.926Z,63.30
2023-06-11T03:32:25.549Z,64.10
2023-06-11T03:34:53.277Z,63.40
2023-06-11T03:37:22.837Z,63.80
2023-06-11T03:39:53.897Z,63.90
2023-06-11T03:42:21.071Z,63.60
2023-06-11T03:44:50.366Z,63.60
2023-06-11T03:47:18.429Z,64.20
2023-06-11T03:49:46.640Z,64.10
2023-06-11T03:52:14.500Z,64.20
2023-06-11T03:54:41.622Z,64.70
2023-06-11T03:57:08.850Z,64.30
2023-06-11T03:59:36.002Z,64.50
2023-06-11T04:02:03.896Z,64.80
2023-06-11T04:04:32.843Z,64.30
2023-06-11T04:07:00.612Z,63.80
2023-06-11T04:09:27.793Z,64.20
2023-06-11T04:11:55.020Z,64.10
2023-06-11T04:14:22.542Z,64.30
2023-06-11T04:16:50.165Z,64.20
2023-06-11T04:19:21.424Z,63.90
2023-06-11T04:21:49.041Z,64.10
2023-06-11T04:24:16.618Z,64.40
2023-06-11T04:26:45.255Z,64.10
2023-06-11T04:29:16.899Z,64.70
2023-06-11T04:31:48.000Z,64.10
2023-06-11T04:34:22.209Z,64.00
2023-06-11T04:36:51.146Z,64.00
2023-06-11T04:39:18.332Z,63.80
2023-06-11T04:41:47.998Z,63.90
2023-06-11T04:44:15.502Z,63.70
2023-06-11T04:46:44.735Z,63.40
2023-06-11T04:49:11.990Z,64.00
2023-06-11T04:51:41.915Z,64.40
2023-06-11T04:54:10.421Z,64.20
2023-06-11T04:56:43.130Z,64.10
2023-06-11T04:59:11.052Z,63.70
2023-06-11T05:01:47.458Z,63.60
2023-06-11T05:04:16.378Z,63.70
2023-06-11T05:06:46.142Z,63.40
2023-06-11T05:09:17.143Z,62.40
2023-06-11T05:11:46.712Z,61.70
2023-06-11T05:14:16.148Z,62.20
2023-06-11T05:16:44.010Z,62.20
2023-06-11T05:19:12.896Z,61.60
2023-06-11T05:21:40.524Z,62.50
2023-06-11T05:24:09.019Z,62.20
2023-06-11T05:26:40.769Z,62.30
2023-06-11T05:29:11.501Z,62.10
2023-06-11T05:31:40.997Z,61.40
2023-06-11T05:34:08.581Z,62.40
2023-06-11T05:36:36.579Z,61.30
2023-06-11T05:39:03.772Z,61.20
2023-06-11T05:41:31.100Z,60.90
2023-06-11T05:43:58.638Z,61.10
2023-06-11T05:46:26.764Z,61.10
2023-06-11T05:48:53.953Z,60.80
2023-06-11T05:51:21.802Z,60.40
2023-06-11T05:53:49.101Z,60.40
2023-06-11T05:56:16.596Z,60.00
2023-06-11T05:58:44.458Z,60.30
2023-06-11T06:01:13.528Z,60.50
2023-06-11T06:03:42.280Z,59.50
2023-06-11T06:06:10.309Z,60.30
2023-06-11T06:08:37.772Z,60.20
2023-06-11T06:11:04.917Z,59.30
2023-06-11T06:13:32.071Z,59.30
2023-06-11T06:16:03.480Z,59.10
2023-06-11T06:18:30.971Z,59.00
2023-06-11T06:20:59.450Z,59.40
2023-06-11T06:23:26.771Z,58.30
2023-06-11T06:26:01.248Z,58.10
2023-06-11T06:28:28.418Z,58.80
2023-06-11T06:30:55.984Z,58.10
2023-06-11T06:33:25.154Z,58.30
2023-06-11T06:35:52.435Z,57.90
2023-06-11T06:38:20.575Z,57.00
2023-06-11T06:40:49.331Z,57.10
2023-06-11T06:43:16.504Z,57.20
2023-06-11T06:45:44.290Z,57.50
2023-06-11T06:48:24.273Z,56.90
2023-06-11T06:50:51.537Z,57.30
2023-06-11T06:53:19.005Z,56.30
2023-06-11T06:55:47.698Z,56.90
2023-06-11T06:58:16.261Z,57.30
2023-06-11T07:00:46.182Z,56.90
2023-06-11T07:03:17.676Z,56.10
2023-06-11T07:05:45.619Z,56.80
2023-06-11T07:08:13.445Z,55.70
2023-06-11T07:10:52.237Z,55.50
2023-06-11T07:13:27.261Z,55.90
2023-06-11T07:15:56.767Z,56.40
2023-06-11T07:18:24.068Z,55.80
2023-06-11T07:20:51.218Z,55.90
2023-06-11T07:23:24.445Z,56.00
2023-06-11T07:25:52.154Z,56.20
2023-06-11T07:28:20.401Z,58.10
2023-06-11T07:30:51.388Z,55.60
2023-06-11T07:33:19.838Z,57.90
2023-06-11T07:35:54.117Z,55.60
2023-06-11T07:38:24.120Z,56.30
2023-06-11T07:40:51.421Z,56.70
2023-06-11T07:43:18.595Z,56.60
2023-06-11T07:45:45.832Z,56.20
2023-06-11T07:48:15.652Z,57.20
2023-06-11T07:50:45.521Z,57.30
2023-06-11T07:53:20.256Z,56.20
2023-06-11T07:55:58.295Z,54.60
2023-06-11T07:58:26.257Z,55.20
2023-06-11T08:00:55.957Z,54.80
2023-06-11T08:03:23.396Z,54.70
2023-06-11T08:05:51.936Z,54.40
2023-06-11T08:08:19.432Z,56.10
2023-06-11T08:10:47.032Z,55.00
2023-06-11T08:13:15.334Z,54.20
2023-06-11T08:15:42.594Z,55.30
2023-06-11T08:18:09.795Z,54.30
2023-06-11T08:20:36.973Z,55.20
2023-06-11T08:23:04.131Z,55.80
2023-06-11T08:25:35.020Z,55.40
2023-06-11T08:28:02.172Z,54.70
2023-06-11T08:30:29.507Z,53.40
2023-06-11T08:32:57.816Z,54.60
2023-06-11T08:35:25.140Z,54.70
2023-06-11T08:37:52.620Z,55.00
2023-06-11T08:40:22.197Z,54.00
2023-06-11T08:42:50.694Z,55.70
2023-06-11T08:45:18.238Z,53.80
2023-06-11T08:47:51.815Z,53.30
2023-06-11T08:50:22.682Z,53.40
2023-06-11T08:52:52.976Z,54.30
2023-06-11T08:55:20.281Z,53.50
2023-06-11T08:57:48.068Z,53.50
2023-06-11T09:00:15.811Z,52.20
2023-06-11T09:02:43.473Z,52.30
2023-06-11T09:05:12.708Z,52.40
2023-06-11T09:07:51.934Z,53.00
2023-06-11T09:10:21.101Z,52.30
2023-06-11T09:12:48.720Z,52.40
2023-06-11T09:15:18.100Z,53.10
2023-06-11T09:17:47.994Z,52.80
2023-06-11T09:20:16.944Z,51.30
2023-06-11T09:22:45.578Z,51.00
2023-06-11T09:25:18.600Z,51.10
2023-06-11T09:27:48.114Z,51.30
2023-06-11T09:30:18.342Z,51.30
2023-06-11T09:32:49.545Z,51.20
2023-06-11T09:35:21.369Z,49.80
2023-06-11T09:37:52.180Z,49.70
2023-06-11T09:40:21.799Z,49.10
2023-06-11T09:42:50.014Z,49.10
2023-06-11T09:45:21.041Z,49.50
2023-06-11T09:47:49.451Z,49.90
2023-06-11T09:50:19.316Z,50.90
2023-06-11T09:52:47.148Z,50.00
2023-06-11T09:55:15.135Z,51.20
2023-06-11T09:57:44.921Z,49.40
2023-06-11T10:00:15.165Z,49.60
2023-06-11T10:02:43.994Z,51.60
2023-06-11T10:05:12.671Z,48.90
2023-06-11T10:07:57.145Z,49.60
2023-06-11T10:10:25.896Z,50.00
2023-06-11T10:12:54.535Z,48.40
2023-06-11T10:15:26.062Z,49.50
2023-06-11T10:17:58.326Z,49.60
2023-06-11T10:20:32.910Z,49.10
2023-06-11T10:23:08.615Z,49.20
2023-06-11T10:25:41.691Z,47.80
2023-06-11T10:28:11.035Z,45.50
2023-06-11T10:30:38.982Z,47.00
2023-06-11T10:33:07.424Z,46.30
2023-06-11T10:35:38.221Z,45.60
2023-06-11T10:38:14.575Z,45.90
2023-06-11T10:40:44.265Z,45.30
2023-06-11T10:43:21.979Z,44.40
2023-06-11T10:46:05.297Z,44.60
2023-06-11T10:48:33.372Z,44.20
2023-06-11T10:51:06.597Z,44.80
2023-06-11T10:53:42.397Z,43.50
2023-06-11T10:56:15.182Z,44.60
2023-06-11T10:58:43.664Z,44.20
2023-06-11T11:01:13.522Z,44.80
2023-06-11T11:03:44.744Z,45.60
2023-06-11T11:06:14.585Z,44.60
2023-06-11T11:08:42.016Z,44.50
2023-06-11T11:11:23.371Z,44.50
2023-06-11T11:13:54.033Z,42.60
2023-06-11T11:16:23.857Z,43.00
2023-06-11T11:18:53.241Z,42.30
2023-06-11T11:21:31.696Z,44.00
2023-06-11T11:24:00.304Z,41.60
2023-06-11T11:26:29.760Z,43.30
2023-06-11T11:28:57.049Z,42.60
2023-06-11T11:31:24.608Z,41.30
2023-06-11T11:33:52.233Z,42.30
2023-06-11T11:36:19.692Z,41.50
2023-06-11T11:38:52.078Z,41.90
2023-06-11T11:41:23.894Z,40.20
2023-06-11T11:43:54.536Z,39.10
2023-06-11T11:46:25.143Z,39.90
2023-06-11T11:48:58.933Z,42.60
2023-06-11T11:51:27.482Z,41.30
2023-06-11T11:53:54.736Z,42.40
2023-06-11T11:56:24.578Z,42.80
2023-06-11T11:58:54.605Z,42.40
2023-06-11T12:01:23.723Z,42.80
2023-06-11T12:04:02.212Z,43.10
2023-06-11T12:06:31.533Z,40.70
2023-06-11T12:08:59.084Z,42.40
2023-06-11T12:11:26.248Z,38.50
2023-06-11T12:13:53.383Z,40.10
2023-06-11T12:16:23.949Z,41.80
2023-06-11T12:18:51.120Z,39.70
2023-06-11T12:21:18.747Z,41.90
2023-06-11T12:23:45.836Z,41.50
2023-06-11T12:26:12.976Z,39.60
2023-06-11T12:28:44.290Z,39.30
2023-06-11T12:31:16.311Z,40.90
2023-06-11T12:33:44.699Z,41.50
2023-06-11T12:36:14.415Z,42.00
2023-06-11T12:38:41.568Z,40.30
2023-06-11T12:41:09.078Z,40.30
2023-06-11T12:43:39.319Z,40.00
2023-06-11T12:46:07.930Z,39.80
2023-06-11T12:48:35.451Z,40.30
2023-06-11T12:51:02.811Z,41.50
2023-06-11T12:53:31.360Z,39.60
2023-06-11T12:55:58.536Z,39.20
2023-06-11T12:58:25.662Z,41.20
2023-06-11T13:00:52.830Z,40.30
2023-06-11T13:03:20.289Z,40.80
2023-06-11T13:05:47.516Z,41.20
2023-06-11T13:08:14.694Z,38.60
2023-06-11T13:10:41.856Z,41.10
2023-06-11T13:13:09.008Z,39.90
2023-06-11T13:15:36.173Z,40.70
2023-06-11T13:18:04.560Z,41.40
2023-06-11T13:20:32.386Z,41.60
2023-06-11T13:22:59.538Z,41.80
2023-06-11T13:25:26.797Z,43.40
2023-06-11T13:27:59.863Z,42.70
2023-06-11T13:30:29.619Z,42.60
2023-06-11T13:33:00.627Z,42.00
2023-06-11T13:35:30.540Z,40.50
2023-06-11T13:38:01.366Z,38.20
2023-06-11T13:40:28.846Z,39.60
2023-06-11T13:43:01.342Z,40.30
2023-06-11T13:45:29.962Z,39.80
2023-06-11T13:48:01.595Z,39.40
2023-06-11T13:50:32.182Z,39.60
2023-06-11T13:53:01.095Z,38.50
2023-06-11T13:55:31.832Z,40.90
2023-06-11T13:58:04.855Z,39.60
2023-06-11T14:00:35.264Z,39.80
2023-06-11T14:03:10.409Z,38.90
2023-06-11T14:05:38.056Z,40.20
2023-06-11T14:08:11.193Z,39.70
2023-06-11T14:10:40.764Z,40.30
2023-06-11T14:13:10.126Z,39.90
2023-06-11T14:15:41.132Z,38.20
2023-06-11T14:18:12.070Z,40.80
2023-06-11T14:20:39.386Z,40.50
2023-06-11T14:23:06.914Z,41.30
2023-06-11T14:25:44.473Z,40.00
2023-06-11T14:28:26.596Z,41.60
2023-06-11T14:30:54.061Z,40.20
2023-06-11T14:33:26.354Z,39.90
2023-06-11T14:36:16.311Z,38.20
2023-06-11T14:38:52.423Z,39.80
2023-06-11T14:41:26.966Z,37.50
2023-06-11T14:44:09.708Z,37.80
2023-06-11T14:47:05.919Z,38.90
2023-06-11T14:55:12.215Z,37.80
2023-06-11T14:55:40.919Z,38.30
2023-06-11T14:58:08.221Z,39.90
2023-06-11T15:00:44.721Z,40.20
2023-06-11T15:03:13.389Z,39.00
2023-06-11T15:05:41.767Z,40.30
2023-06-11T15:08:08.917Z,40.30
2023-06-11T15:10:38.636Z,41.50
2023-06-11T15:13:07.422Z,39.30
2023-06-11T15:15:34.521Z,39.20
2023-06-11T15:18:01.901Z,38.70
2023-06-11T15:20:31.698Z,37.10
2023-06-11T15:22:59.091Z,33.20
2023-06-11T15:25:26.590Z,32.00
2023-06-11T15:27:57.778Z,33.80
2023-06-11T15:30:26.641Z,33.20
2023-06-11T15:32:55.440Z,32.30
2023-06-11T15:35:26.756Z,30.50
2023-06-11T15:37:54.055Z,30.70
2023-06-11T15:40:24.473Z,30.40
2023-06-11T15:42:51.808Z,31.20
2023-06-11T15:45:19.085Z,31.50
2023-06-11T15:47:46.344Z,31.90
2023-06-11T15:50:17.873Z,31.50
2023-06-11T15:52:49.785Z,32.40
2023-06-11T15:55:28.358Z,30.80
2023-06-11T15:57:58.142Z,31.70
2023-06-11T16:00:25.774Z,31.60
2023-06-11T16:02:55.586Z,30.30
2023-06-11T16:05:22.882Z,31.50
2023-06-11T16:07:52.623Z,32.90
2023-06-11T16:10:20.136Z,32.30
2023-06-11T16:12:53.130Z,33.70
2023-06-11T16:15:22.815Z,32.40
2023-06-11T16:17:50.055Z,31.60
2023-06-11T16:20:17.444Z,30.40
2023-06-11T16:22:44.785Z,31.30
2023-06-11T16:25:12.365Z,30.10
2023-06-11T16:27:40.172Z,30.60
2023-06-11T16:30:08.839Z,31.10
2023-06-11T16:32:36.366Z,29.80
2023-06-11T16:35:04.015Z,30.30
2023-06-11T16:37:31.191Z,31.10
2023-06-11T16:39:58.353Z,31.20
2023-06-11T16:42:25.491Z,31.80
2023-06-11T16:44:52.679Z,33.20
2023-06-11T16:47:19.813Z,33.90
2023-06-11T16:50:01.917Z,35.60
2023-06-11T16:52:32.553Z,35.30
2023-06-11T16:55:02.036Z,36.30
2023-06-11T16:57:29.815Z,37.60
2023-06-11T16:59:59.454Z,39.00
2023-06-11T17:02:27.394Z,39.60
2023-06-11T17:04:57.107Z,40.50
2023-06-11T17:07:24.337Z,41.50
2023-06-11T17:09:51.500Z,42.10
2023-06-11T17:12:18.730Z,42.20
2023-06-11T17:15:15.804Z,42.80
2023-06-11T17:17:44.222Z,42.70
2023-06-11T17:20:15.483Z,43.10
2023-06-11T17:22:47.641Z,43.20
2023-06-11T17:25:15.599Z,43.60
2023-06-11T17:27:42.892Z,43.80
2023-06-11T17:30:10.929Z,44.50
2023-06-11T17:32:38.364Z,43.90
2023-06-11T17:35:06.117Z,44.80
2023-06-11T17:37:33.304Z,43.60
2023-06-11T17:40:00.545Z,44.50
2023-06-11T17:42:27.685Z,45.20
2023-06-11T17:44:54.796Z,46.50
2023-06-11T17:47:21.995Z,45.20
2023-06-11T17:49:50.105Z,47.20
2023-06-11T17:52:17.861Z,46.20
2023-06-11T17:54:45.166Z,46.40
2023-06-11T17:57:12.316Z,47.60
2023-06-11T17:59:39.497Z,49.50
2023-06-11T18:02:06.793Z,50.00
2023-06-11T18:04:33.952Z,47.30
2023-06-11T18:07:01.316Z,48.10
2023-06-11T18:09:28.435Z,48.10
2023-06-11T18:11:55.603Z,47.90
2023-06-11T18:14:22.909Z,48.10
2023-06-11T18:16:50.215Z,48.40
2023-06-11T18:19:17.458Z,47.90
2023-06-11T18:21:44.733Z,50.40
2023-06-11T18:24:13.292Z,48.60
2023-06-11T18:26:40.519Z,47.80
2023-06-11T18:29:07.668Z,49.30
2023-06-11T18:31:34.901Z,50.50
2023-06-11T18:34:02.068Z,51.80
2023-06-11T18:36:29.169Z,52.30
2023-06-11T18:38:57.696Z,51.40
2023-06-11T18:41:25.397Z,50.60
2023-06-11T18:43:53.428Z,52.60
2023-06-11T18:46:20.969Z,52.60
2023-06-11T18:48:48.304Z,50.20
2023-06-11T18:51:15.527Z,52.20
2023-06-11T18:53:43.473Z,52.00
2023-06-11T18:56:10.638Z,52.10
2023-06-11T18:58:37.712Z,54.00
2023-06-11T19:01:04.994Z,54.80
2023-06-11T19:03:34.036Z,54.60
2023-06-11T19:06:02.709Z,52.40
2023-06-11T19:08:29.934Z,54.90
2023-06-11T19:10:57.045Z,53.60
2023-06-11T19:13:24.159Z,54.40
2023-06-11T19:15:51.344Z,54.30
2023-06-11T19:18:18.740Z,54.70
2023-06-11T19:20:45.961Z,55.30
2023-06-11T19:23:15.484Z,55.00
2023-06-11T19:25:42.714Z,55.40
2023-06-11T19:28:09.867Z,55.70
2023-06-11T19:30:37.133Z,56.10
2023-06-11T19:33:04.444Z,56.40
2023-06-11T19:35:31.615Z,57.00
2023-06-11T19:37:58.872Z,56.50
2023-06-11T19:40:26.067Z,57.00
2023-06-11T19:42:53.228Z,57.20
2023-06-11T19:45:22.142Z,57.90
2023-06-11T19:47:49.591Z,57.70
2023-06-11T19:50:17.021Z,57.90
2023-06-11T19:52:44.102Z,57.70
2023-06-11T19:55:11.876Z,56.20
2023-06-11T19:57:39.185Z,56.80
2023-06-11T20:00:07.279Z,56.90
2023-06-11T20:02:39.649Z,56.70
2023-06-11T20:05:07.938Z,55.70
2023-06-11T20:07:36.241Z,56.20
2023-06-11T20:10:05.751Z,56.20
2023-06-11T20:12:33.197Z,55.70
2023-06-11T20:15:00.626Z,55.90
2023-06-11T20:17:27.951Z,53.90
2023-06-11T20:19:55.430Z,53.90
2023-06-11T20:22:23.029Z,54.80
2023-06-11T20:24:50.148Z,54.90
2023-06-11T20:27:17.769Z,54.50
2023-06-11T20:29:44.872Z,55.70
2023-06-11T20:32:12.955Z,55.80
2023-06-11T20:34:40.916Z,55.40
2023-06-11T20:37:08.195Z,55.70
2023-06-11T20:39:35.636Z,56.20
2023-06-11T20:42:02.854Z,56.30
2023-06-11T20:44:29.968Z,56.20
2023-06-11T20:46:57.133Z,56.40
2023-06-11T20:49:24.892Z,57.20
2023-06-11T20:51:51.996Z,57.60
2023-06-11T20:54:19.231Z,57.60
2023-06-11T20:56:46.358Z,57.90
2023-06-11T20:59:13.632Z,57.90
2023-06-11T21:01:41.000Z,57.60
2023-06-11T21:04:08.207Z,57.30
2023-06-11T21:06:40.564Z,57.40
2023-06-11T21:09:08.642Z,58.60
2023-06-11T21:11:36.131Z,58.70
2023-06-11T21:14:13.693Z,59.00
2023-06-11T21:16:42.561Z,58.40
2023-06-11T21:19:09.792Z,58.40
2023-06-11T21:21:37.811Z,58.90
2023-06-11T21:24:05.901Z,58.90
2023-06-11T21:26:33.337Z,59.10
2023-06-11T21:29:01.648Z,59.40
2023-06-11T21:31:28.809Z,59.40
2023-06-11T21:33:56.299Z,59.40
2023-06-11T21:36:23.412Z,59.40
2023-06-11T21:38:50.489Z,59.90
2023-06-11T21:41:17.588Z,60.10
2023-06-11T21:43:44.684Z,60.10
2023-06-11T21:46:11.828Z,60.20
2023-06-11T21:48:38.882Z,60.80
2023-06-11T21:51:06.029Z,60.60
2023-06-11T21:53:33.103Z,60.50
2023-06-11T21:56:00.479Z,60.80
2023-06-11T21:58:27.601Z,60.60
2023-06-11T22:00:54.714Z,61.40
2023-06-11T22:03:23.791Z,61.90
2023-06-11T22:05:54.722Z,61.90
2023-06-11T22:08:22.567Z,61.40
2023-06-11T22:10:50.196Z,61.10
2023-06-11T22:13:17.578Z,62.10
2023-06-11T22:15:44.969Z,62.00
2023-06-11T22:18:12.066Z,62.20
2023-06-11T22:20:39.661Z,61.70
2023-06-11T22:23:06.793Z,62.40
2023-06-11T22:25:33.936Z,62.50
2023-06-11T22:28:01.069Z,62.40
2023-06-11T22:30:28.249Z,62.60
2023-06-11T22:32:55.348Z,62.80
2023-06-11T22:35:22.672Z,63.20
2023-06-11T22:37:49.794Z,63.30
2023-06-11T22:40:16.901Z,63.90
2023-06-11T22:42:43.980Z,64.00
2023-06-11T22:45:11.427Z,64.00
2023-06-11T22:47:39.781Z,64.00
2023-06-11T22:50:08.120Z,64.20
2023-06-11T22:52:41.344Z,64.40
2023-06-11T22:55:10.127Z,64.60
2023-06-11T22:57:37.599Z,65.20
2023-06-11T23:00:06.177Z,65.20
2023-06-11T23:02:33.385Z,65.50
2023-06-11T23:05:00.730Z,65.70
2023-06-11T23:07:28.470Z,65.50
2023-06-11T23:09:55.697Z,65.50
2023-06-11T23:12:22.791Z,66.10
2023-06-11T23:14:49.964Z,65.50
2023-06-11T23:17:20.513Z,65.90
2023-06-11T23:19:47.881Z,65.70
2023-06-11T23:22:15.514Z,66.30
2023-06-11T23:24:45.968Z,66.00
2023-06-11T23:27:16.448Z,66.40
2023-06-11T23:29:44.730Z,66.30
2023-06-11T23:32:12.169Z,66.20
2023-06-11T23:34:39.658Z,66.70
2023-06-11T23:37:07.566Z,67.20
2023-06-11T23:39:35.190Z,67.10
2023-06-11T23:42:02.941Z,67.40
2023-06-11T23:44:30.065Z,67.50
2023-06-11T23:46:57.205Z,67.50
2023-06-11T23:49:24.277Z,67.60
2023-06-11T23:51:51.762Z,67.80
2023-06-11T23:54:18.859Z,67.50
2023-06-11T23:56:45.958Z,67.30
2023-06-11T23:59:13.201Z,67.20
